Time;durP1;ratioP1;P1;durP2;ratioP2;P2;SDS_P1;SDS_P2;PMS_P1;PMS_P2;Temp;Humidity;BMP_temperature;BMP_pressure;BME280_temperature;BME280_humidity;BME280_pressure;Samples;Min_cycle;Max_cycle;Signal;HPM_P1;HPM_P2
2021/05/10 00:01:25;;;;;;;6.85;4.70;;;;;;;;;;4992780;28;20030;-59
2021/05/10 00:03:51;;;;;;;5.63;4.60;;;;;;;;;;4973265;28;20023;-59
2021/05/10 00:06:17;;;;;;;7.15;4.47;;;;;;;;;;4988061;28;20412;-59
2021/05/10 00:08:45;;;;;;;8.70;4.90;;;;;;;;;;4990815;28;20076;-59
2021/05/10 00:11:11;;;;;;;5.20;4.70;;;;;;;;;;4992355;28;20400;-59
2021/05/10 00:13:42;;;;;;;8.55;5.07;;;;;;;;;;4992283;28;20026;-59
2021/05/10 00:16:09;;;;;;;9.35;5.47;;;;;;;;;;4992165;28;20042;-59
2021/05/10 00:18:35;;;;;;;12.80;6.35;;;;;;;;;;4992278;28;20027;-59
2021/05/10 00:21:01;;;;;;;7.70;5.45;;;;;;;;;;4992269;28;20034;-59
2021/05/10 00:23:28;;;;;;;8.63;6.05;;;;;;;;;;4992096;28;20041;-59
2021/05/10 00:25:54;;;;;;;9.70;5.70;;;;;;;;;;4991933;28;20101;-59
2021/05/10 00:28:20;;;;;;;8.70;5.93;;;;;;;;;;4992247;28;20041;-59
2021/05/10 00:30:46;;;;;;;9.20;5.78;;;;;;;;;;4992362;28;20122;-59
2021/05/10 00:33:12;;;;;;;8.07;5.43;;;;;;;;;;4990684;28;20030;-58
2021/05/10 00:35:38;;;;;;;7.18;5.15;;;;;;;;;;4990741;28;20069;-59
2021/05/10 00:38:05;;;;;;;8.23;5.20;;;;;;;;;;4990988;28;20040;-58
2021/05/10 00:40:33;;;;;;;8.52;5.00;;;;;;;;;;4991760;28;20031;-58
2021/05/10 00:43:00;;;;;;;7.00;5.38;;;;;;;;;;4991969;28;20362;-59
2021/05/10 00:45:27;;;;;;;9.18;4.68;;;;;;;;;;4991970;28;20084;-58
2021/05/10 00:47:53;;;;;;;5.38;4.40;;;;;;;;;;4995859;28;20026;-58
2021/05/10 00:50:20;;;;;;;7.18;4.50;;;;;;;;;;4995828;28;20018;-58
2021/05/10 00:52:46;;;;;;;6.80;4.57;;;;;;;;;;4996033;28;20099;-58
2021/05/10 00:55:13;;;;;;;6.90;4.50;;;;;;;;;;4995669;28;20492;-58
2021/05/10 00:57:42;;;;;;;6.38;4.82;;;;;;;;;;4995992;28;20038;-59
2021/05/10 01:00:09;;;;;;;6.30;4.07;;;;;;;;;;4995136;28;20037;-59
2021/05/10 01:02:36;;;;;;;9.70;4.35;;;;;;;;;;4996192;28;20034;-59
2021/05/10 01:05:05;;;;;;;5.50;4.55;;;;;;;;;;4995404;28;20026;-59
2021/05/10 01:07:32;;;;;;;8.02;4.07;;;;;;;;;;4994473;28;20341;-58
2021/05/10 01:09:59;;;;;;;6.00;4.53;;;;;;;;;;4995615;28;20031;-59
2021/05/10 01:12:25;;;;;;;10.93;5.20;;;;;;;;;;4995740;28;20022;-60
2021/05/10 01:14:52;;;;;;;6.03;4.55;;;;;;;;;;4995163;28;20037;-60
2021/05/10 01:17:18;;;;;;;6.40;4.28;;;;;;;;;;4995186;28;20441;-60
2021/05/10 01:19:44;;;;;;;8.77;4.55;;;;;;;;;;4995927;28;20019;-60
2021/05/10 01:22:11;;;;;;;7.55;4.40;;;;;;;;;;4994174;28;20038;-60
2021/05/10 01:24:37;;;;;;;5.80;4.35;;;;;;;;;;4995307;28;20101;-59
2021/05/10 01:27:03;;;;;;;6.75;5.03;;;;;;;;;;4995728;28;20433;-59
2021/05/10 01:29:30;;;;;;;6.80;4.47;;;;;;;;;;4995273;28;20080;-59
2021/05/10 01:31:56;;;;;;;6.13;4.22;;;;;;;;;;4995343;28;20031;-59
2021/05/10 01:34:22;;;;;;;6.40;4.60;;;;;;;;;;4994130;28;20122;-59
2021/05/10 01:36:49;;;;;;;6.68;4.40;;;;;;;;;;4995390;28;20023;-59
2021/05/10 01:39:15;;;;;;;11.90;4.78;;;;;;;;;;4995121;28;20500;-59
2021/05/10 01:41:41;;;;;;;9.23;4.43;;;;;;;;;;4994985;28;20082;-59
2021/05/10 01:44:07;;;;;;;7.25;4.38;;;;;;;;;;4995367;28;20109;-59
2021/05/10 01:46:34;;;;;;;9.00;4.72;;;;;;;;;;4993713;28;20031;-59
2021/05/10 01:49:01;;;;;;;7.00;5.03;;;;;;;;;;4995141;28;20436;-59
2021/05/10 01:51:28;;;;;;;8.55;4.43;;;;;;;;;;4993847;28;20061;-59
2021/05/10 01:53:54;;;;;;;7.35;4.90;;;;;;;;;;4992859;28;20031;-59
2021/05/10 01:56:20;;;;;;;5.05;4.30;;;;;;;;;;4994888;28;20543;-59
2021/05/10 01:58:53;;;;;;;8.90;4.60;;;;;;;;;;4993072;28;20048;-59
2021/05/10 02:01:19;;;;;;;7.78;4.72;;;;;;;;;;4995036;28;20018;-59
2021/05/10 02:03:46;;;;;;;8.88;5.13;;;;;;;;;;4994627;28;20470;-59
2021/05/10 02:06:12;;;;;;;9.88;4.90;;;;;;;;;;4994923;28;20015;-58
2021/05/10 02:08:41;;;;;;;8.55;5.45;;;;;;;;;;4994587;28;20112;-59
2021/05/10 02:11:07;;;;;;;7.57;4.10;;;;;;;;;;4994710;28;20028;-58
2021/05/10 02:13:34;;;;;;;7.45;4.57;;;;;;;;;;4992695;28;20045;-59
2021/05/10 02:16:01;;;;;;;6.85;4.63;;;;;;;;;;4994524;28;20022;-59
2021/05/10 02:18:29;;;;;;;7.45;4.47;;;;;;;;;;4992906;28;20050;-59
2021/05/10 02:20:55;;;;;;;7.10;5.00;;;;;;;;;;4994717;28;20071;-59
2021/05/10 02:23:23;;;;;;;6.38;3.80;;;;;;;;;;4994062;28;20061;-59
2021/05/10 02:26:07;;;;;;;7.72;4.47;;;;;;;;;;4993168;28;20027;-59
2021/05/10 02:28:35;;;;;;;7.80;4.57;;;;;;;;;;4994532;28;20019;-59
2021/05/10 02:31:02;;;;;;;5.78;4.10;;;;;;;;;;4994176;28;20410;-59
2021/05/10 02:33:33;;;;;;;4.88;4.15;;;;;;;;;;4994160;28;20053;-60
2021/05/10 02:35:59;;;;;;;7.35;3.75;;;;;;;;;;4993797;28;20155;-59
2021/05/10 02:38:26;;;;;;;5.82;3.80;;;;;;;;;;4992546;28;20041;-59
2021/05/10 02:40:52;;;;;;;5.63;3.88;;;;;;;;;;4993912;28;20505;-58
2021/05/10 02:43:21;;;;;;;6.43;4.20;;;;;;;;;;4993888;28;20027;-58
2021/05/10 02:45:47;;;;;;;6.00;4.45;;;;;;;;;;4993854;28;20081;-59
2021/05/10 02:48:14;;;;;;;5.40;4.20;;;;;;;;;;4993957;28;20105;-59
2021/05/10 02:50:40;;;;;;;5.53;4.07;;;;;;;;;;4993727;28;20026;-58
2021/05/10 02:53:06;;;;;;;5.18;4.30;;;;;;;;;;4993581;28;20133;-59
2021/05/10 02:55:32;;;;;;;6.57;3.88;;;;;;;;;;4992017;28;20512;-58
2021/05/10 02:57:59;;;;;;;5.45;3.70;;;;;;;;;;4993589;28;20100;-58
2021/05/10 03:00:26;;;;;;;6.63;3.90;;;;;;;;;;4993821;28;20473;-59
2021/05/10 03:02:55;;;;;;;5.38;3.90;;;;;;;;;;4992194;28;20393;-58
2021/05/10 03:05:21;;;;;;;6.82;4.15;;;;;;;;;;4992537;28;20085;-59
2021/05/10 03:07:47;;;;;;;6.10;4.00;;;;;;;;;;4993480;28;20034;-59
2021/05/10 03:10:15;;;;;;;6.10;3.85;;;;;;;;;;4993181;28;20022;-59
2021/05/10 03:12:41;;;;;;;4.43;3.35;;;;;;;;;;4993521;28;20027;-60
2021/05/10 03:15:09;;;;;;;4.07;3.67;;;;;;;;;;4993211;28;20042;-59
2021/05/10 03:17:35;;;;;;;4.82;3.88;;;;;;;;;;4993646;28;20053;-59
2021/05/10 03:20:04;;;;;;;5.88;3.78;;;;;;;;;;4993187;28;20076;-59
2021/05/10 03:22:30;;;;;;;6.15;3.70;;;;;;;;;;4993228;28;20362;-59
2021/05/10 03:24:56;;;;;;;3.95;3.45;;;;;;;;;;4993071;28;20133;-59
2021/05/10 03:27:22;;;;;;;6.05;4.10;;;;;;;;;;4992913;28;20050;-60
2021/05/10 03:29:48;;;;;;;4.70;3.35;;;;;;;;;;4993386;28;20042;-59
2021/05/10 03:32:14;;;;;;;5.18;3.75;;;;;;;;;;4993365;28;20077;-59
2021/05/10 03:34:41;;;;;;;6.50;3.60;;;;;;;;;;4992784;28;20034;-60
2021/05/10 03:37:07;;;;;;;7.55;3.75;;;;;;;;;;4993296;28;20023;-60
2021/05/10 03:39:33;;;;;;;4.63;3.40;;;;;;;;;;4992873;28;20457;-59
2021/05/10 03:41:59;;;;;;;5.03;3.83;;;;;;;;;;4991820;28;20145;-59
2021/05/10 03:44:25;;;;;;;5.82;3.78;;;;;;;;;;4992622;28;20027;-59
2021/05/10 03:46:51;;;;;;;5.30;3.40;;;;;;;;;;4993101;28;20023;-59
2021/05/10 03:49:18;;;;;;;5.88;3.67;;;;;;;;;;4991459;28;20169;-59
2021/05/10 03:51:44;;;;;;;5.68;3.85;;;;;;;;;;4993104;28;20377;-59
2021/05/10 03:54:10;;;;;;;5.38;3.65;;;;;;;;;;4990174;28;20022;-59
2021/05/10 03:56:36;;;;;;;5.38;4.20;;;;;;;;;;4984667;28;20113;-59
2021/05/10 03:59:02;;;;;;;5.85;4.25;;;;;;;;;;4990664;28;20026;-59
2021/05/10 04:01:29;;;;;;;4.07;3.65;;;;;;;;;;4990575;28;20117;-59
2021/05/10 04:04:07;;;;;;;6.82;4.15;;;;;;;;;;4992621;28;20058;-59
2021/05/10 04:14:17;;;;;;;6.28;4.55;;;;;;;;;;4992675;28;20084;-59
2021/05/10 04:16:43;;;;;;;5.80;4.10;;;;;;;;;;4991812;28;20058;-59
2021/05/10 04:19:10;;;;;;;5.32;4.25;;;;;;;;;;4992232;28;20034;-59
2021/05/10 04:21:36;;;;;;;4.93;3.80;;;;;;;;;;4992300;28;20026;-59
2021/05/10 04:24:02;;;;;;;4.95;3.67;;;;;;;;;;4992291;28;20034;-59
2021/05/10 04:26:28;;;;;;;5.63;3.80;;;;;;;;;;4990330;28;20110;-59
2021/05/10 04:28:54;;;;;;;11.25;4.70;;;;;;;;;;4991590;28;20465;-59
2021/05/10 04:31:20;;;;;;;4.55;3.83;;;;;;;;;;4989256;28;20121;-59
2021/05/10 04:33:47;;;;;;;6.53;3.70;;;;;;;;;;4991782;28;20033;-59
2021/05/10 04:36:13;;;;;;;6.97;3.88;;;;;;;;;;4990896;28;20038;-59
2021/05/10 04:38:42;;;;;;;6.10;4.38;;;;;;;;;;4992195;28;20022;-59
2021/05/10 04:41:09;;;;;;;8.93;4.28;;;;;;;;;;4991928;28;20054;-59
2021/05/10 04:43:35;;;;;;;7.65;3.83;;;;;;;;;;4990525;28;20027;-59
2021/05/10 04:46:01;;;;;;;5.88;3.85;;;;;;;;;;4992017;28;20058;-59
2021/05/10 04:48:28;;;;;;;5.30;3.65;;;;;;;;;;4992058;28;20042;-59
2021/05/10 04:50:54;;;;;;;5.40;4.20;;;;;;;;;;4992343;28;20026;-58
2021/05/10 04:53:20;;;;;;;5.28;3.60;;;;;;;;;;4983376;28;20027;-59
2021/05/10 04:55:47;;;;;;;8.57;4.85;;;;;;;;;;4987063;28;20504;-59
2021/05/10 04:58:13;;;;;;;7.20;4.30;;;;;;;;;;4991999;28;20042;-60
2021/05/10 05:00:39;;;;;;;7.00;5.13;;;;;;;;;;4992292;28;20085;-59
2021/05/10 05:03:05;;;;;;;6.53;3.85;;;;;;;;;;4990823;28;20499;-59
2021/05/10 05:05:32;;;;;;;6.20;4.07;;;;;;;;;;4992282;28;20026;-59
2021/05/10 05:07:58;;;;;;;4.53;3.95;;;;;;;;;;4990128;28;20039;-58
2021/05/10 05:10:24;;;;;;;7.10;3.78;;;;;;;;;;4989431;28;20026;-59
2021/05/10 05:12:51;;;;;;;6.22;4.53;;;;;;;;;;4990826;28;20019;-59
2021/05/10 05:15:17;;;;;;;7.88;4.80;;;;;;;;;;4992061;28;20042;-59
2021/05/10 05:17:44;;;;;;;6.10;4.53;;;;;;;;;;4991865;28;20041;-59
2021/05/10 05:20:11;;;;;;;5.13;4.28;;;;;;;;;;4991950;28;20093;-59
2021/05/10 05:22:37;;;;;;;8.25;4.32;;;;;;;;;;4992227;28;20617;-59
2021/05/10 05:25:04;;;;;;;7.80;4.18;;;;;;;;;;4990144;28;20113;-59
2021/05/10 05:27:30;;;;;;;4.85;4.35;;;;;;;;;;4991301;28;20031;-60
2021/05/10 05:29:56;;;;;;;5.72;4.38;;;;;;;;;;4991870;28;20022;-59
2021/05/10 05:32:23;;;;;;;8.88;4.90;;;;;;;;;;4993507;28;20053;-58
2021/05/10 05:34:50;;;;;;;10.25;5.07;;;;;;;;;;4995015;28;20091;-59
2021/05/10 05:37:16;;;;;;;9.57;5.07;;;;;;;;;;4995354;28;20449;-58
2021/05/10 05:39:42;;;;;;;9.38;4.55;;;;;;;;;;4994249;28;20027;-59
2021/05/10 05:42:08;;;;;;;10.50;5.22;;;;;;;;;;4994973;28;20056;-59
2021/05/10 05:44:37;;;;;;;8.75;4.65;;;;;;;;;;4995342;28;20505;-59
2021/05/10 05:47:04;;;;;;;8.00;4.70;;;;;;;;;;4994755;28;20173;-59
2021/05/10 05:49:36;;;;;;;5.47;4.53;;;;;;;;;;4995113;28;20034;-59
2021/05/10 05:52:05;;;;;;;6.05;4.38;;;;;;;;;;4992455;28;20220;-59
2021/05/10 05:54:32;;;;;;;5.85;4.82;;;;;;;;;;4994162;28;20034;-59
2021/05/10 05:56:59;;;;;;;5.60;4.45;;;;;;;;;;4994188;28;20492;-58
2021/05/10 05:59:25;;;;;;;6.00;4.40;;;;;;;;;;4994387;28;20034;-59
2021/05/10 06:01:51;;;;;;;6.63;4.65;;;;;;;;;;4992026;28;20561;-59
2021/05/10 06:04:18;;;;;;;6.63;4.50;;;;;;;;;;4993268;28;20049;-58
2021/05/10 06:06:44;;;;;;;6.82;4.43;;;;;;;;;;4993651;28;20023;-58
2021/05/10 06:09:11;;;;;;;8.98;4.50;;;;;;;;;;4994517;28;20511;-59
2021/05/10 06:11:38;;;;;;;5.63;4.40;;;;;;;;;;4994655;28;20054;-58
2021/05/10 06:14:04;;;;;;;6.32;4.53;;;;;;;;;;4988430;28;20435;-59
2021/05/10 06:16:31;;;;;;;10.82;4.85;;;;;;;;;;4993309;28;20081;-60
2021/05/10 06:18:57;;;;;;;6.13;4.30;;;;;;;;;;4994596;28;20022;-59
2021/05/10 06:21:24;;;;;;;7.93;4.20;;;;;;;;;;4994317;28;20104;-59
2021/05/10 06:23:50;;;;;;;7.05;4.60;;;;;;;;;;4994124;28;20029;-59
2021/05/10 06:26:16;;;;;;;7.07;4.60;;;;;;;;;;4993274;28;20114;-59
2021/05/10 06:28:43;;;;;;;8.63;4.60;;;;;;;;;;4994112;28;20026;-59
2021/05/10 06:31:11;;;;;;;7.03;4.38;;;;;;;;;;4992175;28;20165;-59
2021/05/10 06:33:37;;;;;;;7.03;4.32;;;;;;;;;;4994266;28;20049;-59
2021/05/10 06:36:04;;;;;;;5.70;3.80;;;;;;;;;;4993837;28;20112;-59
2021/05/10 06:38:30;;;;;;;5.45;4.22;;;;;;;;;;4993956;28;20101;-59
2021/05/10 06:40:56;;;;;;;6.72;4.93;;;;;;;;;;4992053;28;20057;-59
2021/05/10 06:43:22;;;;;;;6.00;4.03;;;;;;;;;;4993725;28;20027;-59
2021/05/10 06:45:48;;;;;;;8.07;4.20;;;;;;;;;;4993309;28;20116;-60
2021/05/10 06:48:28;;;;;;;6.45;4.38;;;;;;;;;;4992226;28;20030;-59
2021/05/10 06:50:54;;;;;;;6.55;4.35;;;;;;;;;;4991187;28;20033;-60
2021/05/10 06:53:22;;;;;;;8.25;4.13;;;;;;;;;;4993637;28;20027;-60
2021/05/10 06:55:48;;;;;;;5.65;4.35;;;;;;;;;;4993315;28;20035;-59
2021/05/10 06:58:14;;;;;;;4.57;3.90;;;;;;;;;;4972335;28;20019;-58
2021/05/10 07:00:45;;;;;;;4.53;3.83;;;;;;;;;;4985225;28;20029;-59
2021/05/10 07:03:19;;;;;;;6.32;4.50;;;;;;;;;;5007450;28;20027;-59
2021/05/10 07:05:49;;;;;;;5.38;3.72;;;;;;;;;;4993071;28;20489;-58
2021/05/10 07:08:19;;;;;;;6.25;3.90;;;;;;;;;;4972429;28;20034;-58
2021/05/10 07:10:48;;;;;;;7.47;4.03;;;;;;;;;;4984350;28;20030;-59
2021/05/10 07:13:22;;;;;;;6.43;4.10;;;;;;;;;;4994917;28;20068;-59
2021/05/10 07:15:50;;;;;;;6.97;4.15;;;;;;;;;;4978031;28;20045;-60
2021/05/10 07:18:19;;;;;;;8.18;4.22;;;;;;;;;;4989587;28;20034;-59
2021/05/10 07:20:47;;;;;;;12.90;4.13;;;;;;;;;;4980468;28;20041;-60
2021/05/10 07:23:13;;;;;;;7.72;4.10;;;;;;;;;;4990179;28;20503;-57
2021/05/10 07:25:44;;;;;;;11.13;4.00;;;;;;;;;;4993959;28;20072;-57
2021/05/10 07:28:10;;;;;;;6.13;4.63;;;;;;;;;;4985733;28;20037;-58
2021/05/10 07:30:37;;;;;;;5.97;4.28;;;;;;;;;;4982819;28;20121;-58
2021/05/10 07:33:03;;;;;;;5.65;3.90;;;;;;;;;;4990928;28;20491;-59
2021/05/10 07:35:30;;;;;;;5.60;4.15;;;;;;;;;;4992450;28;20031;-59
2021/05/10 07:37:56;;;;;;;5.55;4.25;;;;;;;;;;4993035;28;20595;-58
2021/05/10 07:40:24;;;;;;;9.45;4.68;;;;;;;;;;4992977;28;20018;-58
2021/05/10 07:42:51;;;;;;;5.25;4.38;;;;;;;;;;4992803;28;20046;-58
2021/05/10 07:45:18;;;;;;;6.85;4.18;;;;;;;;;;4988171;28;20034;-59
2021/05/10 07:47:44;;;;;;;8.02;4.70;;;;;;;;;;4982965;28;20030;-57
2021/05/10 07:50:11;;;;;;;6.63;4.97;;;;;;;;;;4975818;28;20054;-58
2021/05/10 07:52:38;;;;;;;6.55;4.78;;;;;;;;;;4980796;28;20041;-58
2021/05/10 07:55:05;;;;;;;14.90;5.53;;;;;;;;;;4986440;28;20136;-58
2021/05/10 07:57:31;;;;;;;10.40;4.78;;;;;;;;;;4992393;28;20105;-57
2021/05/10 07:59:57;;;;;;;8.73;5.47;;;;;;;;;;4990185;28;20038;-59
2021/05/10 08:02:24;;;;;;;10.23;4.95;;;;;;;;;;4991605;28;20031;-58
2021/05/10 08:04:51;;;;;;;8.55;4.70;;;;;;;;;;4990779;28;20053;-58
2021/05/10 08:07:17;;;;;;;7.07;4.65;;;;;;;;;;4992061;28;20505;-59
2021/05/10 08:09:44;;;;;;;9.68;5.15;;;;;;;;;;4990758;28;20060;-59
2021/05/10 08:12:10;;;;;;;9.80;5.40;;;;;;;;;;4992500;28;20026;-58
2021/05/10 08:14:36;;;;;;;8.57;4.88;;;;;;;;;;4991897;28;20114;-58
2021/05/10 08:17:03;;;;;;;9.73;5.25;;;;;;;;;;4992191;28;20033;-58
2021/05/10 08:19:30;;;;;;;8.18;4.63;;;;;;;;;;4992651;28;20030;-58
2021/05/10 08:21:57;;;;;;;9.63;4.80;;;;;;;;;;4992392;28;20507;-58
2021/05/10 08:24:23;;;;;;;10.45;4.70;;;;;;;;;;4992122;28;20030;-58
2021/05/10 08:26:49;;;;;;;9.85;4.95;;;;;;;;;;4992294;28;20355;-59
2021/05/10 08:29:15;;;;;;;4.47;3.85;;;;;;;;;;4991955;28;20038;-58
2021/05/10 08:31:43;;;;;;;8.38;4.95;;;;;;;;;;4992520;28;20080;-58
2021/05/10 08:34:09;;;;;;;9.57;4.90;;;;;;;;;;4987706;28;20390;-58
2021/05/10 08:36:36;;;;;;;6.22;5.25;;;;;;;;;;4992547;28;20437;-57
2021/05/10 08:39:02;;;;;;;16.73;6.47;;;;;;;;;;4992325;28;20537;-58
2021/05/10 08:41:29;;;;;;;6.07;4.80;;;;;;;;;;4991704;28;20111;-58
2021/05/10 08:43:58;;;;;;;10.07;4.63;;;;;;;;;;4992217;28;20504;-57
2021/05/10 08:46:24;;;;;;;6.25;4.30;;;;;;;;;;4991983;28;20044;-57
2021/05/10 08:48:50;;;;;;;7.35;4.88;;;;;;;;;;4991781;28;20140;-58
2021/05/10 08:51:17;;;;;;;7.55;4.25;;;;;;;;;;4991721;28;20042;-59
2021/05/10 08:53:43;;;;;;;7.75;4.57;;;;;;;;;;4990836;28;20026;-58
2021/05/10 08:56:11;;;;;;;5.50;4.28;;;;;;;;;;4992204;28;20121;-58
2021/05/10 08:58:38;;;;;;;7.00;3.97;;;;;;;;;;4989779;28;20042;-57
2021/05/10 09:01:05;;;;;;;4.88;4.38;;;;;;;;;;4991538;28;20030;-57
2021/05/10 09:03:40;;;;;;;8.00;3.95;;;;;;;;;;4990687;28;20022;-58
2021/05/10 09:06:11;;;;;;;7.35;4.47;;;;;;;;;;4991331;28;20030;-59
2021/05/10 09:08:40;;;;;;;6.45;4.35;;;;;;;;;;4994933;28;20069;-58
2021/05/10 09:11:13;;;;;;;7.07;4.40;;;;;;;;;;4994968;28;20422;-58
2021/05/10 09:13:46;;;;;;;6.65;4.57;;;;;;;;;;4989467;28;20035;-58
2021/05/10 09:16:13;;;;;;;6.55;4.43;;;;;;;;;;4976511;28;20042;-59
2021/05/10 09:18:40;;;;;;;8.32;4.28;;;;;;;;;;4976714;28;20122;-59
2021/05/10 09:21:13;;;;;;;11.43;4.65;;;;;;;;;;4995907;28;20496;-58
2021/05/10 09:23:40;;;;;;;6.97;4.60;;;;;;;;;;4993900;28;20030;-58
2021/05/10 09:26:06;;;;;;;8.07;4.97;;;;;;;;;;4995260;28;20477;-58
2021/05/10 09:28:43;;;;;;;6.78;4.75;;;;;;;;;;4993770;28;20027;-60
2021/05/10 09:31:10;;;;;;;7.93;4.65;;;;;;;;;;4994869;28;20414;-60
2021/05/10 09:33:41;;;;;;;6.13;4.50;;;;;;;;;;4995450;28;20093;-59
2021/05/10 09:36:08;;;;;;;4.80;4.07;;;;;;;;;;4995449;28;20084;-58
2021/05/10 09:38:38;;;;;;;8.63;5.28;;;;;;;;;;4994037;28;20533;-59
2021/05/10 09:41:05;;;;;;;8.30;4.60;;;;;;;;;;4993595;28;20129;-59
2021/05/10 09:43:34;;;;;;;6.10;5.00;;;;;;;;;;4995557;28;20026;-57
2021/05/10 09:46:04;;;;;;;7.63;5.30;;;;;;;;;;4994828;28;20504;-58
2021/05/10 09:48:36;;;;;;;7.30;5.55;;;;;;;;;;4993125;28;20028;-58
2021/05/10 09:51:04;;;;;;;8.00;4.60;;;;;;;;;;4995103;28;20034;-57
2021/05/10 09:53:30;;;;;;;8.13;5.22;;;;;;;;;;4994074;28;20030;-58
2021/05/10 09:55:57;;;;;;;5.90;5.07;;;;;;;;;;4989039;28;20081;-59
2021/05/10 09:58:36;;;;;;;8.98;6.13;;;;;;;;;;4994593;28;20061;-58
2021/05/10 10:01:02;;;;;;;8.73;5.78;;;;;;;;;;4993244;28;20030;-58
2021/05/10 10:03:34;;;;;;;7.30;5.70;;;;;;;;;;4994360;28;20458;-57
2021/05/10 10:06:02;;;;;;;7.90;5.33;;;;;;;;;;4994245;28;20062;-59
2021/05/10 10:08:28;;;;;;;10.02;5.88;;;;;;;;;;4992227;28;20268;-59
2021/05/10 10:10:55;;;;;;;8.95;5.50;;;;;;;;;;4992867;28;20018;-58
2021/05/10 10:13:22;;;;;;;7.63;5.82;;;;;;;;;;4993876;28;20026;-59
2021/05/10 10:15:48;;;;;;;8.10;5.72;;;;;;;;;;4993971;28;20062;-58
2021/05/10 10:18:22;;;;;;;11.52;5.93;;;;;;;;;;4994339;28;20030;-58
2021/05/10 10:20:49;;;;;;;8.05;6.03;;;;;;;;;;4994299;28;20105;-58
2021/05/10 10:23:17;;;;;;;9.13;6.28;;;;;;;;;;4992968;28;20037;-59
2021/05/10 10:25:44;;;;;;;9.88;6.43;;;;;;;;;;4976955;28;20464;-59
2021/05/10 10:28:13;;;;;;;10.27;5.57;;;;;;;;;;4993937;28;20423;-59
2021/05/10 10:30:41;;;;;;;16.58;6.57;;;;;;;;;;4976283;28;20080;-58
2021/05/10 10:33:11;;;;;;;14.07;6.70;;;;;;;;;;4994081;28;20403;-57
2021/05/10 10:35:40;;;;;;;9.57;5.43;;;;;;;;;;4994494;28;20061;-58
2021/05/10 10:38:06;;;;;;;9.05;5.80;;;;;;;;;;4994723;28;20026;-58
2021/05/10 10:40:32;;;;;;;10.27;5.95;;;;;;;;;;4994266;28;20438;-58
2021/05/10 10:43:18;;;;;;;8.32;6.00;;;;;;;;;;4992321;28;20053;-58
2021/05/10 10:45:44;;;;;;;6.65;5.47;;;;;;;;;;4987008;28;20041;-58
2021/05/10 10:48:10;;;;;;;12.63;5.85;;;;;;;;;;4992722;28;20393;-57
2021/05/10 10:50:56;;;;;;;10.85;6.43;;;;;;;;;;4985587;28;20066;-59
2021/05/10 10:53:40;;;;;;;9.90;6.57;;;;;;;;;;4994005;28;20045;-58
2021/05/10 10:56:06;;;;;;;11.73;6.10;;;;;;;;;;4989621;28;20034;-58
2021/05/10 10:58:33;;;;;;;8.07;6.18;;;;;;;;;;4991433;28;20509;-59
2021/05/10 11:01:02;;;;;;;9.77;6.70;;;;;;;;;;4994159;28;20038;-59
2021/05/10 11:03:29;;;;;;;8.82;6.35;;;;;;;;;;4990680;28;22476;-58
2021/05/10 11:05:55;;;;;;;7.93;5.95;;;;;;;;;;4986707;28;20027;-59
2021/05/10 11:08:42;;;;;;;21.60;6.78;;;;;;;;;;4984343;28;20031;-58
2021/05/10 11:11:09;;;;;;;14.57;7.28;;;;;;;;;;4978036;28;20026;-58
2021/05/10 11:13:40;;;;;;;14.63;6.88;;;;;;;;;;4979337;28;20497;-59
2021/05/10 11:16:18;;;;;;;9.43;6.45;;;;;;;;;;4992685;28;20096;-59
2021/05/10 11:18:48;;;;;;;9.88;6.93;;;;;;;;;;4962796;28;20031;-58
2021/05/10 11:21:38;;;;;;;12.63;6.72;;;;;;;;;;4989795;28;20504;-58
2021/05/10 11:24:05;;;;;;;12.82;6.68;;;;;;;;;;4981645;28;20138;-58
2021/05/10 11:26:39;;;;;;;8.60;5.47;;;;;;;;;;4992643;28;20041;-58
2021/05/10 11:29:06;;;;;;;8.15;5.25;;;;;;;;;;4992980;28;20329;-57
2021/05/10 11:31:34;;;;;;;12.13;5.70;;;;;;;;;;4991767;28;20425;-57
2021/05/10 11:34:00;;;;;;;11.15;5.35;;;;;;;;;;4992959;28;20165;-58
2021/05/10 11:36:27;;;;;;;7.90;5.68;;;;;;;;;;4991084;28;20034;-59
2021/05/10 11:38:53;;;;;;;11.88;6.07;;;;;;;;;;4992897;28;20018;-58
2021/05/10 11:41:20;;;;;;;7.45;5.70;;;;;;;;;;4992047;28;20113;-58
2021/05/10 11:43:46;;;;;;;8.80;6.00;;;;;;;;;;4992769;28;20030;-57
2021/05/10 11:46:12;;;;;;;48.40;8.65;;;;;;;;;;4992860;28;20473;-58
2021/05/10 11:48:39;;;;;;;9.45;6.63;;;;;;;;;;4992260;28;20030;-58
2021/05/10 11:51:20;;;;;;;14.30;7.05;;;;;;;;;;4992887;28;20033;-59
2021/05/10 11:53:46;;;;;;;13.20;7.20;;;;;;;;;;4989451;28;20117;-59
2021/05/10 11:56:23;;;;;;;7.78;6.72;;;;;;;;;;4989479;28;20485;-58
2021/05/10 11:58:57;;;;;;;10.05;6.65;;;;;;;;;;4990932;28;20033;-59
2021/05/10 12:01:33;;;;;;;14.43;7.25;;;;;;;;;;4991523;28;20077;-59
2021/05/10 12:03:59;;;;;;;16.10;7.85;;;;;;;;;;4990931;28;20489;-59
2021/05/10 12:06:30;;;;;;;11.40;7.40;;;;;;;;;;4989804;28;20454;-58
2021/05/10 12:08:56;;;;;;;8.35;6.97;;;;;;;;;;4991068;28;20093;-59
2021/05/10 12:11:23;;;;;;;8.30;7.43;;;;;;;;;;4992300;28;20037;-59
2021/05/10 12:13:49;;;;;;;13.90;8.18;;;;;;;;;;4970278;28;20478;-58
2021/05/10 12:16:15;;;;;;;14.68;7.38;;;;;;;;;;4977427;28;20089;-59
2021/05/10 12:18:54;;;;;;;12.43;7.50;;;;;;;;;;4990332;28;20030;-60
2021/05/10 12:21:20;;;;;;;7.97;7.05;;;;;;;;;;4988617;28;20022;-58
2021/05/10 12:23:46;;;;;;;8.35;7.03;;;;;;;;;;4991370;28;20110;-57
2021/05/10 12:26:13;;;;;;;10.43;7.60;;;;;;;;;;5004175;28;20027;-59
2021/05/10 12:28:39;;;;;;;9.05;7.35;;;;;;;;;;4991960;28;20019;-58
2021/05/10 12:31:05;;;;;;;10.40;7.57;;;;;;;;;;4991673;28;20026;-58
2021/05/10 12:33:33;;;;;;;9.20;8.10;;;;;;;;;;4989983;28;20141;-58
2021/05/10 12:36:05;;;;;;;8.18;7.43;;;;;;;;;;4991362;28;20030;-59
2021/05/10 12:38:32;;;;;;;;;;;;;;;;;;4990254;28;20031;-59
2021/05/10 12:40:59;;;;;;;8.80;6.80;;;;;;;;;;4994277;28;19921;-59
2021/05/10 12:43:26;;;;;;;10.02;7.40;;;;;;;;;;4995332;28;20517;-58
2021/05/10 12:45:58;;;;;;;8.38;7.00;;;;;;;;;;4994942;28;20022;-59
2021/05/10 12:48:24;;;;;;;;;;;;;;;;;;4996390;28;20023;-58
2021/05/10 12:51:11;;;;;;;12.02;8.63;;;;;;;;;;4994527;28;19913;-57
2021/05/10 12:53:41;;;;;;;9.73;7.75;;;;;;;;;;4982892;28;20022;-59
2021/05/10 12:56:14;;;;;;;10.55;7.70;;;;;;;;;;4994441;28;20046;-58
2021/05/10 12:58:41;;;;;;;10.15;7.72;;;;;;;;;;4995467;28;20026;-59
2021/05/10 13:01:12;;;;;;;19.55;9.18;;;;;;;;;;4991965;28;20026;-59
2021/05/10 13:03:38;;;;;;;12.85;8.70;;;;;;;;;;4994528;28;20022;-59
2021/05/10 13:06:05;;;;;;;9.63;8.63;;;;;;;;;;4994539;28;20030;-59
2021/05/10 13:08:48;;;;;;;9.98;7.65;;;;;;;;;;4995523;28;20062;-58
2021/05/10 13:11:19;;;;;;;12.45;8.77;;;;;;;;;;4994417;28;20065;-61
2021/05/10 13:14:33;;;;;;;10.43;9.05;;;;;;;;;;4995294;28;20034;-59
2021/05/10 13:31:15;;;;;;;12.02;9.00;;;;;;;;;;4995449;28;20624;-59
2021/05/10 13:33:53;;;;;;;11.63;8.95;;;;;;;;;;4995663;28;20446;-59
2021/05/10 13:36:22;;;;;;;12.77;9.85;;;;;;;;;;4983652;28;20057;-60
2021/05/10 13:38:48;;;;;;;14.13;10.25;;;;;;;;;;4993847;28;20019;-59
2021/05/10 13:41:15;;;;;;;11.07;9.13;;;;;;;;;;4995095;28;20050;-59
2021/05/10 13:44:05;;;;;;;12.57;10.27;;;;;;;;;;4995250;28;20058;-59
2021/05/10 13:46:31;;;;;;;14.63;10.93;;;;;;;;;;4984841;28;20030;-59
2021/05/10 13:48:58;;;;;;;13.55;10.55;;;;;;;;;;4995054;28;20031;-59
2021/05/10 13:51:24;;;;;;;12.10;10.27;;;;;;;;;;4993492;28;20033;-59
2021/05/10 13:53:51;;;;;;;16.67;10.05;;;;;;;;;;4994002;28;20026;-60
2021/05/10 13:56:18;;;;;;;12.68;10.13;;;;;;;;;;4994771;28;20034;-58
2021/05/10 13:58:45;;;;;;;15.15;10.68;;;;;;;;;;4993091;28;20030;-58
2021/05/10 14:01:15;;;;;;;16.75;10.55;;;;;;;;;;4991305;28;20499;-58
2021/05/10 14:03:42;;;;;;;13.15;10.05;;;;;;;;;;4992979;28;20014;-59
2021/05/10 14:06:08;;;;;;;12.15;10.23;;;;;;;;;;4994738;28;20081;-59
2021/05/10 14:08:37;;;;;;;11.68;9.65;;;;;;;;;;4994693;28;20105;-59
2021/05/10 14:11:04;;;;;;;11.98;8.98;;;;;;;;;;4977283;28;20033;-59
2021/05/10 14:13:31;;;;;;;11.57;9.38;;;;;;;;;;4994889;28;20030;-58
2021/05/10 14:15:58;;;;;;;10.70;8.88;;;;;;;;;;4994110;28;20022;-59
2021/05/10 14:18:27;;;;;;;12.48;9.80;;;;;;;;;;4994648;28;20085;-59
2021/05/10 14:23:39;;;;;;;18.00;10.00;;;;;;;;;;4995031;28;20037;-58
2021/05/10 14:26:06;;;;;;;13.93;9.32;;;;;;;;;;4993865;28;20026;-58
2021/05/10 14:28:34;;;;;;;14.45;9.38;;;;;;;;;;4992452;28;20071;-59
2021/05/10 14:31:01;;;;;;;14.23;10.25;;;;;;;;;;4993946;28;20101;-58
2021/05/10 14:33:30;;;;;;;13.15;10.15;;;;;;;;;;4994227;28;20472;-58
2021/05/10 14:35:57;;;;;;;11.10;9.18;;;;;;;;;;4993740;28;20031;-59
2021/05/10 14:38:24;;;;;;;12.02;9.50;;;;;;;;;;4993603;28;20089;-58
2021/05/10 14:40:50;;;;;;;11.65;8.13;;;;;;;;;;4993829;28;20049;-60
2021/05/10 14:43:17;;;;;;;12.65;9.18;;;;;;;;;;4985809;28;20026;-62
2021/05/10 14:45:46;;;;;;;12.60;9.40;;;;;;;;;;4994010;28;20022;-58
2021/05/10 14:48:15;;;;;;;14.75;8.93;;;;;;;;;;4993339;28;20085;-59
2021/05/10 14:50:42;;;;;;;15.02;9.70;;;;;;;;;;4974568;28;20485;-59
2021/05/10 14:53:08;;;;;;;12.90;9.20;;;;;;;;;;4989875;28;20062;-59
2021/05/10 14:55:35;;;;;;;19.05;10.88;;;;;;;;;;4993659;28;20041;-60
2021/05/10 14:58:01;;;;;;;12.80;9.27;;;;;;;;;;4993298;28;20022;-59
2021/05/10 15:00:27;;;;;;;14.38;9.98;;;;;;;;;;4993727;28;20034;-59
2021/05/10 15:02:54;;;;;;;14.27;9.30;;;;;;;;;;4980827;28;20033;-59
2021/05/10 15:05:20;;;;;;;15.32;9.05;;;;;;;;;;4980796;28;20026;-59
2021/05/10 15:07:46;;;;;;;14.75;8.90;;;;;;;;;;4993545;28;20233;-59
2021/05/10 15:10:15;;;;;;;13.88;10.25;;;;;;;;;;4986387;28;20040;-60